createdAt,value
2018-08-12T00:00:20.912Z,59.40
2018-08-12T00:02:49.191Z,59.50
2018-08-12T00:05:17.369Z,59.60
2018-08-12T00:07:45.570Z,59.80
2018-08-12T00:10:13.922Z,60.00
2018-08-12T00:12:42.707Z,60.20
2018-08-12T00:15:13.952Z,60.30
2018-08-12T00:17:42.348Z,60.50
2018-08-12T00:20:13.464Z,60.70
2018-08-12T00:22:41.821Z,60.80
2018-08-12T00:25:12.763Z,61.10
2018-08-12T00:27:41.122Z,61.30
2018-08-12T00:30:10.935Z,61.60
2018-08-12T00:32:39.152Z,61.90
2018-08-12T00:35:10.036Z,62.20
2018-08-12T00:37:38.248Z,62.40
2018-08-12T00:40:07.663Z,62.80
2018-08-12T00:42:36.028Z,63.30
2018-08-12T00:45:06.128Z,63.50
2018-08-12T00:47:34.335Z,63.70
2018-08-12T00:50:02.530Z,64.20
2018-08-12T00:52:30.733Z,64.40
2018-08-12T00:54:58.996Z,64.60
2018-08-12T00:57:27.189Z,64.60
2018-08-12T00:59:55.406Z,64.70
2018-08-12T01:02:23.622Z,65.30
2018-08-12T01:04:52.048Z,66.00
2018-08-12T01:07:20.275Z,66.30
2018-08-12T01:09:48.481Z,66.70
2018-08-12T01:12:16.662Z,67.90
2018-08-12T01:14:44.911Z,67.40
2018-08-12T01:17:13.092Z,67.50
2018-08-12T01:19:41.369Z,67.80
2018-08-12T01:22:09.632Z,68.20
2018-08-12T01:24:37.863Z,68.80
2018-08-12T01:27:06.052Z,68.80
2018-08-12T01:29:34.268Z,69.00
2018-08-12T01:32:02.543Z,69.70
2018-08-12T01:34:30.728Z,70.30
2018-08-12T01:36:58.930Z,70.30
2018-08-12T01:39:27.186Z,70.20
2018-08-12T01:41:55.472Z,70.40
2018-08-12T01:44:23.650Z,70.60
2018-08-12T01:46:51.868Z,71.00
2018-08-12T01:49:20.054Z,71.20
2018-08-12T01:51:48.265Z,71.20
2018-08-12T01:54:16.482Z,71.60
2018-08-12T01:56:44.666Z,71.80
2018-08-12T01:59:12.870Z,71.90
2018-08-12T02:01:41.048Z,72.30
2018-08-12T02:04:09.238Z,72.70
2018-08-12T02:06:37.468Z,72.80
2018-08-12T02:09:08.026Z,73.10
2018-08-12T02:11:36.300Z,73.50
2018-08-12T02:14:04.573Z,73.70
2018-08-12T02:16:33.030Z,74.30
2018-08-12T02:19:01.459Z,74.60
2018-08-12T02:21:29.664Z,74.90
2018-08-12T02:23:57.880Z,75.20
2018-08-12T02:26:26.112Z,75.50
2018-08-12T02:28:54.344Z,75.50
2018-08-12T02:31:22.514Z,75.70
2018-08-12T02:33:50.714Z,75.90
2018-08-12T02:36:18.910Z,76.30
2018-08-12T02:38:47.184Z,76.60
2018-08-12T02:41:15.443Z,77.50
2018-08-12T02:43:43.644Z,78.20
2018-08-12T02:46:11.865Z,78.50
2018-08-12T02:48:40.129Z,78.60
2018-08-12T02:51:08.333Z,78.80
2018-08-12T02:53:36.553Z,79.10
2018-08-12T02:56:04.735Z,79.60
2018-08-12T02:58:32.979Z,80.10
2018-08-12T03:01:01.185Z,80.50
2018-08-12T03:03:29.419Z,81.00
2018-08-12T03:05:57.647Z,81.50
2018-08-12T03:08:25.923Z,81.80
2018-08-12T03:10:54.127Z,82.80
2018-08-12T03:13:22.308Z,82.30
2018-08-12T03:15:50.502Z,82.40
2018-08-12T03:18:18.742Z,82.50
2018-08-12T03:20:47.016Z,82.70
2018-08-12T03:23:15.301Z,82.60
2018-08-12T03:25:43.571Z,82.90
2018-08-12T03:28:11.816Z,83.20
2018-08-12T03:30:40.013Z,83.50
2018-08-12T03:33:08.191Z,83.90
2018-08-12T03:35:36.398Z,84.50
2018-08-12T03:38:05.015Z,84.80
2018-08-12T03:40:33.189Z,85.20
2018-08-12T03:43:01.381Z,85.30
2018-08-12T03:45:29.603Z,85.60
2018-08-12T03:47:58.043Z,85.70
2018-08-12T03:50:26.293Z,86.00
2018-08-12T03:52:54.483Z,86.30
2018-08-12T03:55:22.692Z,86.00
2018-08-12T03:57:50.955Z,86.80
2018-08-12T04:00:19.719Z,87.10
2018-08-12T04:02:48.728Z,87.30
2018-08-12T04:05:17.621Z,87.70
2018-08-12T04:07:45.841Z,87.90
2018-08-12T04:10:14.135Z,88.10
2018-08-12T04:12:42.333Z,88.10
2018-08-12T04:15:11.513Z,88.30
2018-08-12T04:17:39.952Z,88.70
2018-08-12T04:20:09.101Z,88.80
2018-08-12T04:22:37.377Z,88.80
2018-08-12T04:25:05.700Z,88.90
2018-08-12T04:27:34.031Z,89.00
2018-08-12T04:30:02.272Z,89.20
2018-08-12T04:32:30.457Z,89.10
2018-08-12T04:34:58.667Z,89.00
2018-08-12T04:37:27.181Z,89.10
2018-08-12T04:39:55.441Z,89.20
2018-08-12T04:42:23.643Z,88.80
2018-08-12T04:44:51.842Z,89.00
2018-08-12T04:47:20.039Z,89.10
2018-08-12T04:49:48.221Z,89.10
2018-08-12T04:52:16.409Z,89.10
2018-08-12T04:54:44.619Z,89.10
2018-08-12T04:57:12.807Z,89.30
2018-08-12T04:59:41.017Z,89.30
2018-08-12T05:02:09.211Z,90.10
2018-08-12T05:04:37.445Z,89.60
2018-08-12T05:07:06.016Z,89.80
2018-08-12T05:09:34.203Z,90.00
2018-08-12T05:12:02.411Z,90.20
2018-08-12T05:14:30.610Z,90.40
2018-08-12T05:16:58.819Z,90.50
2018-08-12T05:19:26.997Z,90.40
2018-08-12T05:21:55.219Z,90.40
2018-08-12T05:24:23.413Z,90.40
2018-08-12T05:26:51.635Z,90.40
2018-08-12T05:29:19.832Z,90.30
2018-08-12T05:31:48.013Z,90.30
2018-08-12T05:34:16.195Z,90.20
2018-08-12T05:36:44.379Z,90.20
2018-08-12T05:39:13.975Z,90.20
2018-08-12T05:41:42.565Z,90.30
2018-08-12T05:44:10.785Z,90.40
2018-08-12T05:46:38.994Z,90.40
2018-08-12T05:49:07.301Z,90.10
2018-08-12T05:51:35.651Z,89.50
2018-08-12T05:54:03.760Z,89.10
2018-08-12T05:56:31.971Z,88.90
2018-08-12T05:59:00.196Z,88.80
2018-08-12T06:01:28.405Z,88.50
2018-08-12T06:03:56.601Z,88.40
2018-08-12T06:06:24.990Z,88.30
2018-08-12T06:08:53.223Z,88.20
2018-08-12T06:11:21.436Z,88.50
2018-08-12T06:13:49.753Z,88.50
2018-08-12T06:16:17.956Z,88.00
2018-08-12T06:18:46.201Z,87.50
2018-08-12T06:21:14.751Z,87.30
2018-08-12T06:23:42.951Z,87.50
2018-08-12T06:26:11.269Z,87.30
2018-08-12T06:28:39.555Z,87.10
2018-08-12T06:31:07.750Z,86.90
2018-08-12T06:33:35.984Z,85.80
2018-08-12T06:36:04.295Z,85.20
2018-08-12T06:38:32.556Z,84.70
2018-08-12T06:41:00.785Z,84.50
2018-08-12T06:43:29.018Z,84.20
2018-08-12T06:45:57.318Z,83.70
2018-08-12T06:48:25.492Z,83.20
2018-08-12T06:50:53.675Z,82.70
2018-08-12T06:53:21.880Z,82.50
2018-08-12T06:55:50.068Z,82.20
2018-08-12T06:58:18.268Z,81.60
2018-08-12T07:00:46.530Z,80.90
2018-08-12T07:03:14.724Z,80.50
2018-08-12T07:05:42.954Z,79.50
2018-08-12T07:08:11.254Z,79.30
2018-08-12T07:10:39.409Z,78.70
2018-08-12T07:13:07.653Z,78.20
2018-08-12T07:15:35.862Z,77.60
2018-08-12T07:18:04.158Z,77.10
2018-08-12T07:20:32.362Z,76.70
2018-08-12T07:23:00.644Z,76.40
2018-08-12T07:25:28.824Z,75.60
2018-08-12T07:27:57.228Z,75.10
2018-08-12T07:30:26.310Z,74.50
2018-08-12T07:32:54.572Z,75.20
2018-08-12T07:35:22.770Z,74.30
2018-08-12T07:37:51.379Z,73.90
2018-08-12T07:40:20.744Z,73.50
2018-08-12T07:42:49.822Z,73.60
2018-08-12T07:45:18.060Z,73.30
2018-08-12T07:47:46.256Z,72.50
2018-08-12T07:50:14.457Z,72.30
2018-08-12T07:52:44.012Z,72.30
2018-08-12T07:55:12.952Z,71.50
2018-08-12T07:57:41.894Z,70.40
2018-08-12T08:00:14.562Z,69.90
2018-08-12T08:02:42.772Z,69.60
2018-08-12T08:05:11.154Z,69.00
2018-08-12T08:07:39.337Z,68.30
2018-08-12T08:10:10.764Z,67.80
2018-08-12T08:12:39.517Z,67.40
2018-08-12T08:15:10.282Z,67.10
2018-08-12T08:17:39.058Z,66.70
2018-08-12T08:20:08.474Z,65.20
2018-08-12T08:22:37.018Z,64.70
2018-08-12T08:25:06.438Z,63.60
2018-08-12T08:27:34.719Z,63.50
2018-08-12T08:30:02.963Z,63.50
2018-08-12T08:32:31.162Z,63.20
2018-08-12T08:34:59.374Z,63.60
2018-08-12T08:37:27.576Z,62.30
2018-08-12T08:39:55.778Z,60.60
2018-08-12T08:42:23.970Z,60.60
2018-08-12T08:44:52.175Z,60.00
2018-08-12T08:47:20.408Z,60.00
2018-08-12T08:49:48.621Z,59.50
2018-08-12T08:52:16.813Z,59.00
2018-08-12T08:54:44.994Z,58.30
2018-08-12T08:57:13.230Z,57.60
2018-08-12T08:59:41.472Z,57.10
2018-08-12T09:02:09.640Z,56.40
2018-08-12T09:04:37.828Z,55.20
2018-08-12T09:07:06.370Z,54.60
2018-08-12T09:09:34.555Z,53.40
2018-08-12T09:12:02.810Z,52.40
2018-08-12T09:14:31.014Z,51.20
2018-08-12T09:16:59.237Z,50.10
2018-08-12T09:19:27.444Z,48.40
2018-08-12T09:21:55.632Z,46.30
2018-08-12T09:24:23.879Z,44.10
2018-08-12T09:26:52.055Z,42.50
2018-08-12T09:29:20.256Z,40.80
2018-08-12T09:31:48.517Z,39.30
2018-08-12T09:34:16.702Z,38.20
2018-08-12T09:36:45.062Z,37.40
2018-08-12T09:39:13.374Z,36.40
2018-08-12T09:41:41.582Z,35.50
2018-08-12T09:44:09.776Z,34.50
2018-08-12T09:46:37.992Z,34.30
2018-08-12T09:49:06.212Z,33.60
2018-08-12T09:51:34.437Z,32.90
2018-08-12T09:54:02.650Z,33.30
2018-08-12T09:56:30.848Z,33.40
2018-08-12T09:58:59.367Z,33.10
2018-08-12T10:01:27.628Z,33.00
2018-08-12T10:03:55.838Z,32.40
2018-08-12T10:06:24.085Z,32.00
2018-08-12T10:08:52.372Z,31.00
2018-08-12T10:11:20.552Z,30.30
2018-08-12T10:13:48.899Z,30.10
2018-08-12T10:16:17.272Z,30.00
2018-08-12T10:18:45.466Z,30.20
2018-08-12T10:21:13.668Z,29.20
2018-08-12T10:23:41.877Z,29.80
2018-08-12T10:26:10.078Z,28.80
2018-08-12T10:28:38.266Z,28.60
2018-08-12T10:31:06.461Z,27.60
2018-08-12T10:33:34.785Z,27.80
2018-08-12T10:36:02.990Z,28.20
2018-08-12T10:38:31.197Z,27.90
2018-08-12T10:40:59.379Z,27.50
2018-08-12T10:43:27.615Z,27.60
2018-08-12T10:45:55.815Z,27.80
2018-08-12T10:48:24.055Z,27.50
2018-08-12T10:50:52.336Z,27.10
2018-08-12T10:53:20.458Z,27.40
2018-08-12T10:55:48.679Z,26.80
2018-08-12T10:58:16.935Z,27.00
2018-08-12T11:00:52.585Z,27.40
2018-08-12T11:03:20.826Z,27.90
2018-08-12T11:05:50.357Z,27.70
2018-08-12T11:08:18.555Z,27.20
2018-08-12T11:10:46.777Z,27.70
2018-08-12T11:13:14.999Z,26.70
2018-08-12T11:15:43.220Z,26.80
2018-08-12T11:18:11.512Z,26.80
2018-08-12T11:20:39.727Z,26.60
2018-08-12T11:23:07.953Z,27.00
2018-08-12T11:25:36.208Z,26.30
2018-08-12T11:28:04.529Z,25.90
2018-08-12T11:30:32.724Z,26.60
2018-08-12T11:33:00.914Z,26.80
2018-08-12T11:35:29.141Z,26.40
2018-08-12T11:37:57.655Z,26.30
2018-08-12T11:40:25.819Z,26.00
2018-08-12T11:42:54.026Z,25.20
2018-08-12T11:45:22.533Z,25.10
2018-08-12T11:47:50.862Z,24.70
2018-08-12T11:50:19.195Z,24.60
2018-08-12T11:52:47.719Z,25.00
2018-08-12T11:55:17.295Z,25.30
2018-08-12T11:57:45.607Z,25.10
2018-08-12T12:00:17.463Z,24.60
2018-08-12T12:02:47.167Z,25.00
2018-08-12T12:05:15.518Z,24.50
2018-08-12T12:07:43.935Z,24.90
2018-08-12T12:10:14.697Z,24.80
2018-08-12T12:12:43.883Z,25.40
2018-08-12T12:15:13.004Z,25.60
2018-08-12T12:17:41.273Z,25.40
2018-08-12T12:20:11.227Z,24.80
2018-08-12T12:22:40.249Z,24.80
2018-08-12T12:25:10.567Z,24.50
2018-08-12T12:27:38.809Z,24.40
2018-08-12T12:30:08.987Z,24.30
2018-08-12T12:32:37.294Z,24.80
2018-08-12T12:35:05.596Z,25.00
2018-08-12T12:37:33.807Z,24.60
2018-08-12T12:40:02.046Z,24.40
2018-08-12T12:42:30.252Z,24.00
2018-08-12T12:44:58.480Z,23.10
2018-08-12T12:47:26.786Z,23.90
2018-08-12T12:49:54.978Z,24.30
2018-08-12T12:52:23.188Z,24.90
2018-08-12T12:54:51.380Z,24.70
2018-08-12T12:57:19.605Z,24.50
2018-08-12T12:59:47.796Z,25.10
2018-08-12T13:02:16.032Z,25.20
2018-08-12T13:04:44.246Z,25.20
2018-08-12T13:07:12.503Z,25.00
2018-08-12T13:09:40.742Z,24.40
2018-08-12T13:12:09.178Z,24.80
2018-08-12T13:14:37.400Z,24.70
2018-08-12T13:17:05.612Z,25.10
2018-08-12T13:19:33.816Z,24.60
2018-08-12T13:22:02.643Z,24.80
2018-08-12T13:24:30.864Z,25.00
2018-08-12T13:26:59.061Z,25.00
2018-08-12T13:29:27.280Z,24.70
2018-08-12T13:31:55.486Z,23.90
2018-08-12T13:34:23.708Z,23.90
2018-08-12T13:36:51.918Z,24.00
2018-08-12T13:39:20.176Z,24.40
2018-08-12T13:41:48.442Z,24.70
2018-08-12T13:44:16.662Z,25.10
2018-08-12T13:46:44.865Z,25.50
2018-08-12T13:49:13.136Z,24.60
2018-08-12T13:51:41.332Z,23.70
2018-08-12T13:54:09.522Z,24.00
2018-08-12T13:56:37.736Z,23.70
2018-08-12T13:59:06.468Z,23.40
2018-08-12T14:01:34.852Z,23.30
2018-08-12T14:04:03.068Z,23.10
2018-08-12T14:06:31.270Z,23.40
2018-08-12T14:08:59.530Z,23.80
2018-08-12T14:11:27.718Z,23.50
2018-08-12T14:13:55.972Z,23.70
2018-08-12T14:16:24.182Z,23.50
2018-08-12T14:18:52.465Z,23.30
2018-08-12T14:21:20.762Z,22.80
2018-08-12T14:23:49.149Z,22.80
2018-08-12T14:26:17.390Z,23.50
2018-08-12T14:28:45.967Z,23.80
2018-08-12T14:31:14.201Z,23.80
2018-08-12T14:33:42.429Z,24.20
2018-08-12T14:36:10.630Z,23.50
2018-08-12T14:38:38.872Z,23.70
2018-08-12T14:41:07.104Z,23.70
2018-08-12T14:43:35.453Z,23.80
2018-08-12T14:46:03.616Z,23.80
2018-08-12T14:48:31.898Z,23.80
2018-08-12T14:51:00.378Z,23.50
2018-08-12T14:53:28.568Z,24.20
2018-08-12T14:55:57.020Z,23.90
2018-08-12T14:58:25.284Z,24.20
2018-08-12T15:00:53.528Z,24.50
2018-08-12T15:03:21.761Z,24.40
2018-08-12T15:05:49.959Z,24.60
2018-08-12T15:08:18.244Z,24.90
2018-08-12T15:10:46.456Z,24.80
2018-08-12T15:13:14.646Z,24.90
2018-08-12T15:15:42.912Z,25.00
2018-08-12T15:18:11.217Z,25.70
2018-08-12T15:20:39.414Z,25.80
2018-08-12T15:23:08.115Z,25.90
2018-08-12T15:25:36.300Z,26.00
2018-08-12T15:28:04.574Z,25.60
2018-08-12T15:30:32.819Z,25.90
2018-08-12T15:33:01.047Z,26.10
2018-08-12T15:35:29.240Z,26.10
2018-08-12T15:37:57.668Z,26.70
2018-08-12T15:40:25.859Z,26.90
2018-08-12T15:42:54.080Z,27.00
2018-08-12T15:45:22.362Z,27.60
2018-08-12T15:47:50.615Z,27.50
2018-08-12T15:50:18.840Z,27.70
2018-08-12T15:52:47.554Z,28.10
2018-08-12T15:55:15.951Z,28.80
2018-08-12T15:57:44.150Z,29.00
2018-08-12T16:00:15.634Z,29.00
2018-08-12T16:02:44.578Z,29.20
2018-08-12T16:05:12.801Z,29.30
2018-08-12T16:07:41.010Z,29.50
2018-08-12T16:10:12.435Z,29.70
2018-08-12T16:12:40.634Z,29.70
2018-08-12T16:15:10.436Z,29.80
2018-08-12T16:17:39.220Z,29.90
2018-08-12T16:20:07.670Z,29.80
2018-08-12T16:22:35.898Z,30.20
2018-08-12T16:25:05.429Z,30.00
2018-08-12T16:27:33.638Z,30.20
2018-08-12T16:30:01.832Z,30.60
2018-08-12T16:32:30.011Z,30.50
2018-08-12T16:34:58.186Z,30.80
2018-08-12T16:37:26.384Z,30.90
2018-08-12T16:39:54.588Z,31.10
2018-08-12T16:42:22.861Z,31.30
2018-08-12T16:44:51.082Z,31.50
2018-08-12T16:47:19.273Z,31.70
2018-08-12T16:49:47.834Z,31.90
2018-08-12T16:52:16.021Z,32.00
2018-08-12T16:54:44.254Z,32.10
2018-08-12T16:57:12.437Z,32.30
2018-08-12T16:59:40.985Z,32.60
2018-08-12T17:02:09.200Z,32.80
2018-08-12T17:04:37.414Z,32.90
2018-08-12T17:07:05.771Z,33.20
2018-08-12T17:09:34.000Z,33.30
2018-08-12T17:12:02.195Z,33.70
2018-08-12T17:14:30.410Z,34.00
2018-08-12T17:16:58.659Z,34.00
2018-08-12T17:19:26.860Z,34.30
2018-08-12T17:21:55.069Z,34.20
2018-08-12T17:24:23.559Z,34.80
2018-08-12T17:26:51.767Z,34.90
2018-08-12T17:29:19.966Z,34.20
2018-08-12T17:31:48.271Z,33.80
2018-08-12T17:34:16.477Z,33.80
2018-08-12T17:36:44.653Z,34.10
2018-08-12T17:39:12.927Z,34.50
2018-08-12T17:41:41.130Z,34.70
2018-08-12T17:44:09.395Z,35.00
2018-08-12T17:46:37.617Z,35.20
2018-08-12T17:49:05.849Z,35.30
2018-08-12T17:51:34.075Z,35.30
2018-08-12T17:54:02.398Z,35.90
2018-08-12T17:56:30.741Z,35.50
2018-08-12T17:58:59.153Z,35.60
2018-08-12T18:01:27.375Z,35.80
2018-08-12T18:03:55.563Z,36.00
2018-08-12T18:06:23.794Z,36.00
2018-08-12T18:08:52.035Z,36.40
2018-08-12T18:11:20.996Z,36.40
2018-08-12T18:13:49.229Z,36.40
2018-08-12T18:16:17.429Z,36.60
2018-08-12T18:18:45.622Z,36.60
2018-08-12T18:21:13.833Z,36.80
2018-08-12T18:23:42.055Z,36.80
2018-08-12T18:26:10.283Z,36.80
2018-08-12T18:28:38.531Z,36.90
2018-08-12T18:31:06.942Z,36.80
2018-08-12T18:33:35.159Z,36.90
2018-08-12T18:36:03.375Z,37.00
2018-08-12T18:38:31.655Z,37.20
2018-08-12T18:40:59.859Z,37.50
2018-08-12T18:43:28.073Z,37.90
2018-08-12T18:45:56.265Z,38.10
2018-08-12T18:48:24.548Z,38.90
2018-08-12T18:50:52.763Z,38.50
2018-08-12T18:53:20.957Z,39.00
2018-08-12T18:55:49.159Z,39.50
2018-08-12T18:58:17.427Z,39.70
2018-08-12T19:00:45.647Z,39.80
2018-08-12T19:03:13.989Z,40.30
2018-08-12T19:05:42.273Z,40.50
2018-08-12T19:08:10.627Z,40.70
2018-08-12T19:10:38.842Z,40.90
2018-08-12T19:13:07.089Z,41.10
2018-08-12T19:15:35.323Z,41.30
2018-08-12T19:18:03.817Z,41.60
2018-08-12T19:20:31.985Z,42.10
2018-08-12T19:23:00.203Z,42.10
2018-08-12T19:25:28.443Z,42.00
2018-08-12T19:27:57.049Z,42.10
2018-08-12T19:30:25.235Z,42.40
2018-08-12T19:32:53.455Z,42.40
2018-08-12T19:35:21.630Z,42.80
2018-08-12T19:37:50.610Z,43.30
2018-08-12T19:40:18.809Z,43.60
2018-08-12T19:42:47.002Z,43.70
2018-08-12T19:45:15.215Z,43.90
2018-08-12T19:47:43.428Z,43.10
2018-08-12T19:50:11.708Z,43.40
2018-08-12T19:52:39.912Z,43.50
2018-08-12T19:55:08.432Z,43.40
2018-08-12T19:57:36.647Z,43.50
2018-08-12T20:00:05.945Z,43.80
2018-08-12T20:02:34.095Z,44.10
2018-08-12T20:05:02.301Z,44.50
2018-08-12T20:07:30.537Z,44.90
2018-08-12T20:09:58.736Z,45.50
2018-08-12T20:12:26.926Z,45.80
2018-08-12T20:14:55.141Z,46.20
2018-08-12T20:17:23.371Z,46.40
2018-08-12T20:19:51.576Z,46.70
2018-08-12T20:22:19.800Z,47.10
2018-08-12T20:24:47.995Z,47.40
2018-08-12T20:27:16.183Z,47.50
2018-08-12T20:29:44.411Z,47.80
2018-08-12T20:32:12.591Z,47.80
2018-08-12T20:34:40.814Z,48.60
2018-08-12T20:37:09.013Z,47.90
2018-08-12T20:39:37.318Z,48.40
2018-08-12T20:42:05.436Z,48.80
2018-08-12T20:44:33.640Z,48.90
2018-08-12T20:47:01.863Z,49.10
2018-08-12T20:49:30.271Z,49.20
2018-08-12T20:51:58.485Z,49.00
2018-08-12T20:54:26.707Z,48.80
2018-08-12T20:56:54.915Z,49.50
2018-08-12T20:59:23.194Z,49.60
2018-08-12T21:01:51.356Z,49.90
2018-08-12T21:04:19.559Z,50.20
2018-08-12T21:06:47.757Z,50.60
2018-08-12T21:09:15.960Z,50.90
2018-08-12T21:11:44.212Z,50.90
2018-08-12T21:14:12.376Z,51.30
2018-08-12T21:16:40.568Z,51.70
2018-08-12T21:19:08.914Z,51.90
2018-08-12T21:21:37.191Z,52.40
2018-08-12T21:24:05.562Z,52.70
2018-08-12T21:26:33.840Z,53.10
2018-08-12T21:29:02.101Z,53.20
2018-08-12T21:31:30.330Z,53.30
2018-08-12T21:33:58.530Z,53.70
2018-08-12T21:36:26.782Z,53.90
2018-08-12T21:38:55.008Z,53.90
2018-08-12T21:41:23.232Z,54.20
2018-08-12T21:43:51.456Z,54.40
2018-08-12T21:46:19.646Z,54.20
2018-08-12T21:48:48.278Z,54.50
2018-08-12T21:51:16.464Z,54.90
2018-08-12T21:53:44.861Z,55.10
2018-08-12T21:56:13.045Z,55.50
2018-08-12T21:58:41.280Z,55.70
2018-08-12T22:01:09.555Z,55.90
2018-08-12T22:03:37.771Z,56.20
2018-08-12T22:06:06.186Z,56.50
2018-08-12T22:08:34.305Z,56.80
2018-08-12T22:11:02.480Z,56.90
2018-08-12T22:13:30.744Z,57.10
2018-08-12T22:15:58.925Z,57.30
2018-08-12T22:18:27.188Z,57.60
2018-08-12T22:20:55.429Z,57.50
2018-08-12T22:23:23.642Z,57.90
2018-08-12T22:25:51.823Z,59.00
2018-08-12T22:28:20.100Z,58.50
2018-08-12T22:30:48.318Z,58.90
2018-08-12T22:33:16.548Z,59.30
2018-08-12T22:35:44.810Z,59.40
2018-08-12T22:38:13.093Z,59.50
2018-08-12T22:40:41.308Z,60.30
2018-08-12T22:43:09.504Z,60.60
2018-08-12T22:45:37.698Z,61.10
2018-08-12T22:48:06.718Z,61.40
2018-08-12T22:50:34.896Z,61.50
2018-08-12T22:53:03.146Z,61.70
2018-08-12T22:55:31.338Z,62.10
2018-08-12T22:57:59.676Z,61.90
2018-08-12T23:00:27.906Z,62.40
2018-08-12T23:02:56.204Z,62.70
2018-08-12T23:05:24.430Z,62.70
2018-08-12T23:07:52.752Z,62.70
2018-08-12T23:10:20.884Z,62.90
2018-08-12T23:12:49.062Z,62.90
2018-08-12T23:15:28.575Z,62.90
2018-08-12T23:17:57.182Z,63.20
2018-08-12T23:20:25.405Z,63.50
2018-08-12T23:22:53.586Z,64.00
2018-08-12T23:25:21.780Z,63.70
2018-08-12T23:27:49.996Z,63.70
2018-08-12T23:30:18.186Z,63.50
2018-08-12T23:32:46.417Z,63.60
2018-08-12T23:35:14.620Z,64.10
2018-08-12T23:37:42.844Z,63.80
2018-08-12T23:40:11.062Z,63.80
2018-08-12T23:42:39.229Z,64.00
2018-08-12T23:45:07.431Z,64.70
2018-08-12T23:47:35.657Z,65.20
2018-08-12T23:50:03.879Z,65.20
2018-08-12T23:52:32.157Z,65.80
2018-08-12T23:55:00.421Z,65.80
2018-08-12T23:57:28.720Z,66.60
2018-08-12T23:59:56.965Z,67.20
